Latest Weather Observations for Evans Head

IDN60801

Issued at 6:53 am EST Wednesday 22 September 2021 (issued every 10 minutes, with the page automatically refreshed every 10 minutes)

About weather observations | Map of weather stations | Latest weather observations for NSW | Other Formats
Station Details ID: 058212 Name: EVANS HEAD RAAF BOMBING RANGE AWS Lat: -29.18 Lon: 153.40 Height: 62.5 m
Data from the previous 72 hours. | See also: Recent months at Evans Head
Date/Time
EST
Temp
°C
App
Temp
°C
Dew
Point
°C
Rel
Hum
%
Delta-T
°C
Wind Press
QNH
hPa
Press
MSL
hPa
Rain since
9am
mm
Dir  Spd
km/h
Gust
km/h
Spd
kts
Gust
kts
22/06:30am 10.5 4.7 2.4 57 3.5 SW 22 32 12 17 1019.7 1019.5 4.8
22/06:00am 10.0 4.5 1.6 56 3.5 SW 20 26 11 14 1019.4 1019.2 4.8
22/05:30am 9.9 4.4 1.8 57 3.4 SW 20 28 11 15 1019.1 1018.9 4.8
22/05:00am 9.9 4.4 1.8 57 3.4 SW 20 26 11 14 1018.7 1018.5 4.8
22/04:30am 9.9 4.6 1.8 57 3.4 SW 19 26 10 14 1018.2 1018.0 4.8
22/04:00am 9.8 4.9 1.7 57 3.4 WSW 17 22 9 12 1017.9 1017.7 4.8
22/03:30am 10.1 4.9 2.5 59 3.2 SW 19 24 10 13 1018.0 1017.8 4.8
22/03:00am 9.7 4.4 2.1 59 3.2 WSW 19 26 10 14 1017.8 1017.6 4.8
22/02:30am 9.9 5.0 1.8 57 3.4 SW 17 22 9 12 1017.9 1017.7 4.8
22/02:00am 10.3 5.0 1.9 56 3.5 SW 19 24 10 13 1018.1 1017.9 4.8
22/01:30am 10.2 4.6 1.3 54 3.7 SW 20 33 11 18 1018.3 1018.1 4.8
22/01:00am 10.3 5.2 0.6 51 4.0 SW 17 24 9 13 1018.6 1018.4 4.8
22/12:30am 10.3 4.8 0.6 51 4.0 SW 19 26 10 14 1018.5 1018.3 4.8
22/12:00am 10.4 4.6 0.2 49 4.1 SW 20 28 11 15 1018.4 1018.2 4.8
 
Date/Time
EST
Temp
°C
App
Temp
°C
Dew
Point
°C
Rel
Hum
%
Delta-T
°C
Wind Press
QNH
hPa
Press
MSL
hPa
Rain since
9am
mm
Dir  Spd
km/h
Gust
km/h
Spd
kts
Gust
kts
21/11:30pm 10.1 4.9 0.2 50 4.0 SW 17 22 9 12 1018.4 1018.2 4.8
21/11:00pm 10.3 5.5 0.1 49 4.1 SW 15 20 8 11 1018.3 1018.1 4.8
21/10:30pm 10.4 4.9 0.4 50 4.1 SW 19 26 10 14 1018.1 1017.9 4.8
21/10:00pm 10.7 5.1 0.2 48 4.3 SW 19 28 10 15 1018.0 1017.8 4.8
21/09:30pm 10.4 5.2 -0.1 48 4.2 SW 17 22 9 12 1017.7 1017.5 4.8
21/09:00pm 10.8 5.5 -0.3 46 4.5 SW 17 22 9 12 1017.5 1017.3 4.8
21/08:30pm 11.5 6.5 -0.9 42 5.0 WSW 15 22 8 12 1017.4 1017.2 4.8
21/08:00pm 11.5 6.6 -0.3 44 4.8 SW 15 20 8 11 1017.3 1017.1 4.8
21/07:30pm 12.0 7.3 1.1 47 4.6 SW 15 19 8 10 1016.8 1016.6 4.8
21/07:00pm 12.5 6.9 1.5 47 4.7 SSW 20 33 11 18 1016.2 1016.0 4.8
21/06:30pm 13.3 7.3 1.3 44 5.1 SSW 22 32 12 17 1015.4 1015.2 4.8
21/06:00pm 13.9 9.0 1.9 44 5.2 SW 17 26 9 14 1014.7 1014.5 4.8
21/05:30pm 14.0 9.1 2.0 44 5.3 SSW 17 24 9 13 1014.1 1013.9 4.8
21/05:00pm 13.8 8.4 2.7 47 4.9 SSW 20 30 11 16 1013.6 1013.4 4.8
21/04:30pm 13.6 6.3 4.5 54 4.2 SSW 32 44 17 24 1012.8 1012.7 4.8
21/04:26pm 13.9 7.4 4.8 54 4.2 SSW 28 44 15 24 1012.8 1012.7 4.8
21/04:00pm 13.9 11.5 8.5 70 2.7 WSW 11 20 6 11 1012.1 1012.0 4.8
21/03:30pm 13.0 9.2 9.1 77 2.0 SSW 19 30 10 16 1011.6 1011.5 4.8
21/03:00pm 12.5 7.0 9.0 79 1.8 SSE 28 41 15 22 1011.0 1010.9 4.0
21/02:30pm 13.9 7.4 8.3 69 2.8 SSE 32 44 17 24 1010.5 1010.4 1.0
21/02:00pm 16.5 10.3 7.7 56 4.4 SSE 30 39 16 21 1010.8 1010.7 0.6
21/01:30pm 16.5 10.6 9.0 61 3.9 SSE 30 43 16 23 1010.6 1010.5 0.6
21/01:00pm 15.6 8.1 8.1 61 3.8 SSE 37 56 20 30 1010.5 1010.4 0.6
21/12:55pm 16.2 8.9 8.7 61 3.8 SSE 37 56 20 30 1010.5 1010.4 0.6
21/12:30pm 16.7 10.6 9.9 64 3.6 SSE 32 46 17 25 1010.5 1010.4 0.6
21/12:00pm 17.7 12.5 11.7 68 3.3 SSE 30 43 16 23 1010.5 1010.4 0.6
21/11:30am 14.7 10.7 11.7 82 1.6 S 24 35 13 19 1011.0 1010.9 0.6
21/11:00am 17.2 12.2 11.0 67 3.3 SSE 28 37 15 20 1010.5 1010.4 0.0
21/10:30am 19.5 13.9 11.5 60 4.4 SSE 32 44 17 24 1011.3 1011.2 0.0
21/10:00am 20.0 15.8 12.3 61 4.3 SSE 26 33 14 18 1011.2 1011.1 0.0
21/09:30am 18.8 14.7 11.4 62 4.1 SSE 24 33 13 18 1011.6 1011.5 0.0
21/09:00am 19.0 14.2 11.6 62 4.1 S 28 39 15 21 1012.2 1012.1 2.0
21/08:30am 18.1 11.6 10.5 61 4.1 S 35 48 19 26 1011.9 1011.8 2.0
21/08:00am 17.7 10.8 10.3 62 4.0 S 37 48 20 26 1011.7 1011.6 2.0
21/07:30am 18.0 13.3 12.0 68 3.3 S 28 46 15 25 1011.7 1011.6 2.0
21/07:00am 18.0 12.5 12.5 70 3.1 S 33 46 18 25 1011.2 1011.1 2.0
21/06:30am 17.2 12.0 12.7 75 2.5 SSE 32 43 17 23 1010.8 1010.7 2.0
21/06:00am 17.1 11.3 12.6 75 2.5 SSE 35 52 19 28 1010.4 1010.3 2.0
21/05:45am 17.2 11.4 12.7 75 2.5 S 35 56 19 30 1010.3 1010.2 2.0
21/05:30am 17.3 11.7 13.2 77 2.3 S 35 48 19 26 1010.1 1010.0 2.0
21/05:06am 18.0 16.1 15.1 83 1.7 W 19 50 10 27 1009.5 1009.4 2.0
21/05:00am 18.6 17.9 15.3 81 1.9 WNW 13 19 7 10 1008.9 1008.8 2.0
21/04:30am 18.8 18.0 15.1 79 2.2 WNW 13 20 7 11 1008.4 1008.3 2.0
21/04:00am 19.1 17.7 15.6 80 2.1 WNW 17 24 9 13 1008.0 1007.9 2.0
21/03:30am 19.4 18.5 15.9 80 2.1 NW 15 28 8 15 1008.1 1008.0 2.0
21/03:00am 18.7 18.3 16.1 85 1.6 NW 13 20 7 11 1008.3 1008.2 2.0
21/02:30am 18.9 17.9 16.7 87 1.3 NW 17 24 9 13 1008.2 1008.1 2.0
21/02:00am 18.9 17.6 16.9 88 1.2 NW 19 30 10 16 1008.6 1008.5 2.0
21/01:30am 19.3 17.3 17.3 88 1.2 NW 24 41 13 22 1009.1 1009.0 1.8
21/01:08am 19.1 16.3 17.2 89 1.2 NW 28 54 15 29 1009.0 1008.9 1.8
21/01:00am 19.1 16.6 17.1 88 1.2 NW 26 43 14 23 1009.3 1009.2 1.8
21/12:30am 20.3 18.3 16.5 79 2.3 NW 22 39 12 21 1009.1 1009.0 1.0
21/12:00am 19.7 18.7 16.5 82 1.9 NW 17 30 9 16 1009.4 1009.3 1.0
 
Date/Time
EST
Temp
°C
App
Temp
°C
Dew
Point
°C
Rel
Hum
%
Delta-T
°C
Wind Press
QNH
hPa
Press
MSL
hPa
Rain since
9am
mm
Dir  Spd
km/h
Gust
km/h
Spd
kts
Gust
kts
20/11:30pm 19.9 18.0 16.7 82 1.9 NNW 22 33 12 18 1009.9 1009.8 1.0
20/11:00pm 19.5 18.2 16.7 84 1.7 NNW 19 30 10 16 1009.9 1009.8 1.0
20/10:30pm 19.2 17.8 16.6 85 1.6 NNW 19 26 10 14 1010.3 1010.2 1.0
20/10:00pm 18.9 17.8 17.2 90 1.0 NNW 19 26 10 14 1010.3 1010.2 1.0
20/09:30pm 18.7 18.2 16.9 89 1.1 NNW 15 20 8 11 1011.1 1011.0 1.0
20/09:00pm 19.2 18.5 17.3 89 1.2 NNW 17 24 9 13 1011.3 1011.2 1.0
20/08:30pm 19.0 18.3 17.3 90 1.0 NNW 17 28 9 15 1011.5 1011.4 1.0
20/08:00pm 18.8 18.2 17.5 92 0.8 NNW 17 26 9 14 1011.5 1011.4 1.0
20/07:30pm 18.8 18.2 17.5 92 0.8 NNW 17 24 9 13 1011.4 1011.3 1.0
20/07:00pm 19.3 18.2 17.4 89 1.2 NNW 19 26 10 14 1011.5 1011.4 1.0
20/06:31pm 20.7 18.0 17.5 82 2.0 NNW 28 46 15 25 1011.7 1011.6 1.0
20/06:30pm 21.0 18.3 17.6 81 2.1 NNW 28 37 15 20 1011.8 1011.7 0.8
20/06:00pm 22.5 22.4 17.0 71 3.4 N 13 19 7 10 1010.5 1010.4 0.0
20/05:30pm 23.1 22.2 16.9 68 3.8 N 17 26 9 14 1010.4 1010.3 0.0
20/05:00pm 23.5 22.1 16.5 65 4.3 N 19 28 10 15 1010.1 1010.0 0.0
20/04:30pm 24.3 23.4 16.8 63 4.6 NNE 17 28 9 15 1010.1 1010.0 0.0
20/04:00pm 26.4 25.1 16.9 56 5.9 N 19 26 10 14 1010.2 1010.1 0.0
20/03:30pm 27.7 26.1 16.6 50 6.9 N 20 32 11 17 1010.3 1010.2 0.0
20/03:00pm 28.1 26.0 16.1 48 7.4 N 22 37 12 20 1010.4 1010.3 0.0
20/02:30pm 29.4 28.4 16.6 46 8.0 N 17 30 9 16 1011.0 1010.9 0.0
20/02:00pm 30.3 29.5 17.0 44 8.4 NNE 17 26 9 14 1011.4 1011.3 0.0
20/01:30pm 29.7 29.1 17.5 48 7.8 NNE 17 30 9 16 1012.3 1012.2 0.0
20/01:00pm 27.7 26.3 16.6 50 6.9 NE 19 28 10 15 1013.0 1012.9 0.0
20/12:30pm 26.5 25.0 16.4 53 6.2 ENE 19 32 10 17 1013.8 1013.6 0.0
20/12:00pm 26.7 25.4 17.2 56 5.9 NE 20 30 11 16 1014.7 1014.5 0.0
20/11:30am 29.0 28.2 16.2 46 8.0 N 15 24 8 13 1015.4 1015.2 0.0
20/11:00am 30.0 28.4 14.9 39 9.2 NNW 17 24 9 13 1016.3 1016.1 0.0
20/10:30am 28.7 27.3 15.6 45 8.1 NW 17 35 9 19 1017.0 1016.8 0.0
20/10:00am 27.2 26.1 15.2 47 7.3 NNW 15 28 8 15 1017.5 1017.3 0.0
20/09:30am 25.0 24.8 15.6 56 5.7 N 11 17 6 9 1018.3 1018.1 0.0
20/09:00am 23.0 23.0 15.3 62 4.6 NNW 9 13 5 7 1019.0 1018.8 0.0
20/08:30am 20.4 20.5 15.6 74 2.9 N 9 20 5 11 1019.3 1019.1 0.0
20/08:00am 17.5 17.9 16.2 92 0.8 NW 9 13 5 7 1019.4 1019.2 0.0
20/07:30am 15.9 15.9 15.3 96 0.3 N 9 13 5 7 1019.0 1018.8 0.0
20/07:00am 14.2 15.4 13.7 97 0.3 CALM 0 0 0 0 1019.5 1019.3 0.0
20/06:30am 13.8 14.8 13.3 97 0.3 CALM 0 0 0 0 1019.5 1019.3 0.0
20/06:00am 12.4 11.6 11.8 96 0.3 NNW 7 9 4 5 1019.0 1018.8 0.0
20/05:30am 13.0 12.0 12.4 96 0.3 NW 9 11 5 6 1019.1 1018.9 0.0
20/05:00am 13.7 13.0 13.2 97 0.3 NW 9 13 5 7 1018.9 1018.7 0.0
20/04:30am 13.4 12.2 12.8 96 0.3 NW 11 13 6 7 1019.1 1018.9 0.0
20/04:00am 14.0 13.7 13.4 96 0.3 NW 7 9 4 5 1019.0 1018.8 0.0
20/03:30am 13.8 12.7 13.2 96 0.3 NW 11 15 6 8 1018.9 1018.7 0.0
20/03:00am 14.2 13.3 13.6 96 0.3 NW 11 13 6 7 1019.0 1018.8 0.0
20/02:30am 15.0 15.1 14.4 96 0.3 NW 7 9 4 5 1019.5 1019.3 0.0
20/02:00am 14.4 13.8 13.6 95 0.4 NW 9 11 5 6 1019.6 1019.4 0.0
20/01:30am 14.8 14.4 14.0 95 0.5 NW 9 11 5 6 1019.8 1019.6 0.0
20/01:00am 14.7 13.8 13.7 94 0.6 NW 11 15 6 8 1020.0 1019.8 0.0
20/12:30am 15.3 14.9 14.2 93 0.6 NW 9 9 5 5 1020.4 1020.2 0.0
20/12:00am 16.4 17.1 15.6 95 0.5 WNW 6 7 3 4 1020.7 1020.5 0.0
 
Date/Time
EST
Temp
°C
App
Temp
°C
Dew
Point
°C
Rel
Hum
%
Delta-T
°C
Wind Press
QNH
hPa
Press
MSL
hPa
Rain since
9am
mm
Dir  Spd
km/h
Gust
km/h
Spd
kts
Gust
kts
19/11:30pm 15.8 16.0 14.8 94 0.6 NW 7 9 4 5 1020.9 1020.7 0.0
19/11:00pm 16.1 16.4 15.0 93 0.6 NW 7 9 4 5 1020.9 1020.7 0.0
19/10:30pm 16.7 17.4 15.7 94 0.6 NW 6 7 3 4 1021.1 1021.0 0.0
19/10:00pm 16.7 17.1 15.4 92 0.8 N 7 7 4 4 1021.1 1021.0 0.0
19/09:30pm 17.2 17.1 15.9 92 0.8 N 11 15 6 8 1021.2 1021.1 0.0
19/09:00pm 17.1 16.8 15.4 90 1.0 N 11 15 6 8 1021.2 1021.1 0.0
19/08:30pm 17.5 17.3 15.7 89 1.1 N 11 15 6 8 1021.2 1021.1 0.0
19/08:00pm 17.5 16.7 15.1 86 1.4 N 13 17 7 9 1021.2 1021.1 0.0
19/07:30pm 17.6 17.1 14.9 84 1.6 N 11 15 6 8 1021.0 1020.8 0.0
19/07:00pm 17.7 16.7 14.6 82 1.8 N 13 17 7 9 1020.7 1020.5 0.0
19/06:30pm 18.0 17.2 14.1 78 2.2 NNE 11 17 6 9 1020.6 1020.4 0.0
19/06:00pm 18.6 17.4 14.1 75 2.6 NE 13 20 7 11 1020.5 1020.3 0.0
19/05:30pm 19.1 17.5 13.9 72 3.0 ENE 15 20 8 11 1020.5 1020.3 0.0
19/05:00pm 19.5 17.4 13.7 69 3.3 ENE 17 22 9 12 1020.4 1020.2 0.0
19/04:30pm 20.3 18.7 14.0 67 3.6 E 15 22 8 12 1020.1 1019.9 0.0
19/04:00pm 21.2 19.9 13.6 62 4.4 E 13 22 7 12 1019.9 1019.7 0.0
19/03:30pm 21.1 18.5 13.3 61 4.5 E 19 24 10 13 1020.0 1019.8 0.0
19/03:00pm 21.7 19.5 13.3 59 4.8 ESE 17 26 9 14 1020.2 1020.0 0.0
19/02:30pm 22.1 19.6 13.5 58 5.0 SE 19 24 10 13 1020.6 1020.4 0.0
19/02:00pm 21.8 18.8 12.6 56 5.2 SE 20 28 11 15 1021.0 1020.8 0.0
19/01:30pm 22.4 19.6 13.2 56 5.3 SSE 20 28 11 15 1021.5 1021.4 0.0
19/01:00pm 22.7 19.8 12.9 54 5.6 SSE 20 30 11 16 1022.0 1021.9 0.0
19/12:30pm 22.8 19.8 12.7 53 5.8 SE 20 28 11 15 1022.2 1022.1 0.0
19/12:00pm 22.7 19.5 13.2 55 5.5 SE 22 28 12 15 1022.6 1022.5 0.0
19/11:30am 22.6 19.2 12.5 53 5.8 SSE 22 30 12 16 1023.2 1023.1 0.0
19/11:00am 23.2 20.3 12.8 52 6.0 SSE 20 30 11 16 1023.5 1023.4 0.0
19/10:30am 23.0 20.3 13.5 55 5.5 SE 20 30 11 16 1023.7 1023.6 0.0
19/10:00am 23.3 20.4 14.0 56 5.4 SSE 22 32 12 17 1023.8 1023.7 0.0
19/09:30am 22.2 18.1 12.7 55 5.4 SSE 26 35 14 19 1023.8 1023.7 0.0
19/09:00am 22.8 18.9 14.4 59 4.9 SSE 28 37 15 20 1023.8 1023.7 0.0
19/08:30am 22.2 19.6 14.8 63 4.4 SSE 22 28 12 15 1023.7 1023.6 0.0
19/08:00am 21.7 19.3 15.5 68 3.7 S 22 28 12 15 1023.5 1023.4 0.0
19/07:30am 20.7 18.4 11.6 56 5.1 SSW 15 24 8 13 1023.2 1023.1 0.0
19/07:00am 19.6 17.6 11.6 60 4.4 SW 13 19 7 10 1022.8 1022.7 0.0

Other formats

Comma delimited format used in spreadsheet applications
http://www.bom.gov.au/fwo/IDN60801/IDN60801.94598.axf

JavaScript Object Notation format (JSON) in row-major order
http://www.bom.gov.au/fwo/IDN60801/IDN60801.94598.json

Data quality

Most of these data are generated automatically and are frequently updated. Quality checks on data are not normally performed. It is possible for incorrect values to appear. Refer to information at About Latest Weather Observations and please check the disclaimer before using these data.